createdAt,value
2024-02-22T00:03:20.546Z,0.50
2024-02-22T01:42:15.316Z,0.20
2024-02-22T01:47:18.700Z,0.20
2024-02-22T01:52:23.247Z,0.22
2024-02-22T01:57:25.366Z,0.10
2024-02-22T02:02:28.949Z,0.00
2024-02-22T02:07:31.377Z,0.13
2024-02-22T02:12:33.790Z,0.28
2024-02-22T02:17:36.177Z,0.35
2024-02-22T02:22:57.512Z,0.10
2024-02-22T02:27:59.883Z,0.05
2024-02-22T02:33:17.274Z,0.10
2024-02-22T02:38:19.520Z,0.20
2024-02-22T02:43:21.617Z,0.10
2024-02-22T02:48:23.786Z,0.05
2024-02-22T02:53:25.890Z,0.10
2024-02-22T02:58:27.874Z,0.10
2024-02-22T03:39:51.932Z,0.00
2024-02-22T03:44:53.870Z,0.00
2024-02-22T03:49:55.866Z,0.00
2024-02-22T03:54:57.848Z,0.00
2024-02-22T03:59:59.910Z,0.08
2024-02-22T04:05:05.617Z,0.10
2024-02-22T04:10:08.068Z,0.10
2024-02-22T04:15:10.295Z,0.00
2024-02-22T04:20:12.493Z,0.10
2024-02-22T04:25:14.806Z,0.10
2024-02-22T04:30:17.012Z,0.10
2024-02-22T04:35:20.111Z,0.17
2024-02-22T04:40:22.088Z,0.10
2024-02-22T04:45:24.259Z,0.00
2024-02-22T04:50:26.136Z,0.00
2024-02-22T04:55:28.550Z,0.10
2024-02-22T05:00:31.445Z,0.10
2024-02-22T05:05:33.662Z,0.05
2024-02-22T05:10:35.904Z,0.10
2024-02-22T05:15:37.956Z,0.20
2024-02-22T05:20:40.350Z,0.00
2024-02-22T05:25:43.146Z,0.08
2024-02-22T05:30:45.427Z,0.00
2024-02-22T05:35:47.918Z,0.10
2024-02-22T05:40:50.182Z,0.00
2024-02-22T05:45:52.103Z,0.00
2024-02-22T05:50:54.252Z,0.15
2024-02-22T05:55:56.456Z,0.10
2024-02-22T06:00:58.484Z,0.00
2024-02-22T06:06:00.622Z,0.00
2024-02-22T06:11:04.391Z,0.00
2024-02-22T06:16:07.035Z,0.00
2024-02-22T06:21:09.550Z,0.15
2024-02-22T06:26:11.520Z,0.00
2024-02-22T06:31:13.393Z,0.00
2024-02-22T06:36:15.740Z,0.00
2024-02-22T06:41:19.906Z,0.10
2024-02-22T06:46:25.694Z,0.00
2024-02-22T06:51:28.043Z,0.05
2024-02-22T06:56:30.078Z,0.08
2024-02-22T07:01:33.879Z,0.00
2024-02-22T07:06:35.905Z,0.00
2024-02-22T07:11:38.226Z,0.00
2024-02-22T07:16:42.216Z,0.10
2024-02-22T07:21:44.605Z,0.10
2024-02-22T07:26:47.516Z,0.10
2024-02-22T07:31:49.452Z,0.10
2024-02-22T07:36:51.863Z,0.00
2024-02-22T07:41:53.956Z,0.10
2024-02-22T07:46:56.005Z,0.03
2024-02-22T07:51:59.255Z,0.10
2024-02-22T07:57:01.331Z,0.10
2024-02-22T08:02:04.177Z,0.00
2024-02-22T08:07:06.647Z,0.00
2024-02-22T08:12:08.953Z,0.10
2024-02-22T08:17:11.892Z,0.25
2024-02-22T08:22:13.917Z,0.00
2024-02-22T08:27:15.905Z,0.10
2024-02-22T08:32:18.319Z,0.08
2024-02-22T08:37:20.371Z,0.10
2024-02-22T08:42:22.521Z,0.00
2024-02-22T08:47:25.035Z,0.13
2024-02-22T08:52:26.994Z,1.02
2024-02-22T08:57:30.097Z,0.60
2024-02-22T09:02:35.184Z,0.40
2024-02-22T09:07:37.560Z,0.52
2024-02-22T09:12:41.906Z,0.30
2024-02-22T09:17:43.944Z,0.68
2024-02-22T09:22:45.909Z,0.55
2024-02-22T09:27:47.962Z,0.95
2024-02-22T09:32:51.708Z,0.50
2024-02-22T09:37:53.759Z,0.47
2024-02-22T09:42:56.700Z,0.47
2024-02-22T09:48:01.506Z,0.30
2024-02-22T09:53:04.227Z,0.45
2024-02-22T09:58:06.418Z,0.40
2024-02-22T10:03:08.608Z,0.30
2024-02-22T10:08:11.498Z,0.40
2024-02-22T10:13:21.884Z,0.60
2024-02-22T10:18:29.168Z,0.25
2024-02-22T10:23:31.494Z,0.32
2024-02-22T10:28:34.518Z,0.30
2024-02-22T10:33:37.541Z,0.30
2024-02-22T10:38:40.117Z,0.52
2024-02-22T10:43:45.063Z,0.28
2024-02-22T10:48:55.446Z,0.20
2024-02-22T10:53:58.229Z,0.13
2024-02-22T10:59:04.493Z,0.00
2024-02-22T11:04:06.919Z,0.50
2024-02-22T11:09:20.087Z,0.28
2024-02-22T11:14:32.748Z,0.40
2024-02-22T11:19:36.932Z,0.43
2024-02-22T11:24:38.897Z,0.10
2024-02-22T11:29:40.781Z,0.30
2024-02-22T11:34:42.974Z,0.30
2024-02-22T11:39:46.119Z,0.10
2024-02-22T11:44:48.205Z,0.30
2024-02-22T11:49:50.434Z,0.30
2024-02-22T11:54:52.671Z,0.10
2024-02-22T11:59:54.556Z,0.10
2024-02-22T12:04:56.551Z,0.10
2024-02-22T12:09:58.645Z,0.10
2024-02-22T12:15:03.407Z,0.15
2024-02-22T12:20:07.807Z,0.10
2024-02-22T12:25:10.108Z,0.25
2024-02-22T12:30:13.201Z,0.30
2024-02-22T12:35:15.860Z,0.10
2024-02-22T12:40:17.868Z,0.00
2024-02-22T12:45:21.501Z,0.20
2024-02-22T12:50:23.735Z,0.20
2024-02-22T12:55:25.675Z,0.25
2024-02-22T13:00:27.679Z,0.20
2024-02-22T13:05:32.638Z,0.10
2024-02-22T13:10:34.722Z,0.20
2024-02-22T13:15:36.999Z,0.00
2024-02-22T13:20:38.967Z,0.20
2024-02-22T13:25:41.470Z,0.10
2024-02-22T13:30:43.975Z,0.20
2024-02-22T13:35:46.022Z,0.10
2024-02-22T13:40:48.130Z,0.10
2024-02-22T13:45:50.244Z,0.13
2024-02-22T13:50:56.017Z,0.10
2024-02-22T13:55:58.095Z,0.10
2024-02-22T14:01:00.156Z,0.00
2024-02-22T14:06:04.801Z,0.13
2024-02-22T14:11:08.405Z,0.00
2024-02-22T14:16:10.807Z,0.40
2024-02-22T14:21:15.236Z,0.20
2024-02-22T14:26:17.241Z,0.08
2024-02-22T14:31:20.844Z,0.15
2024-02-22T14:36:23.385Z,0.08
2024-02-22T14:41:25.648Z,0.10
2024-02-22T14:46:30.620Z,0.10
2024-02-22T14:51:32.566Z,0.10
2024-02-22T14:56:34.719Z,0.03
2024-02-22T15:01:38.067Z,0.00
2024-02-22T15:06:46.699Z,0.13
2024-02-22T15:11:49.032Z,0.10
2024-02-22T15:16:53.185Z,0.00
2024-02-22T15:21:55.407Z,0.00
2024-02-22T15:27:01.369Z,0.10
2024-02-22T15:32:05.998Z,0.00
2024-02-22T15:37:10.079Z,0.00
2024-02-22T15:42:12.048Z,0.10
2024-02-22T15:47:14.042Z,0.10
2024-02-22T15:52:16.038Z,0.05
2024-02-22T15:57:18.039Z,0.00
2024-02-22T16:02:21.251Z,0.00
2024-02-22T16:07:23.360Z,0.10
2024-02-22T16:12:25.655Z,0.00
2024-02-22T16:17:27.599Z,0.00
2024-02-22T16:22:30.696Z,0.70
2024-02-22T16:27:33.709Z,0.40
2024-02-22T16:32:35.784Z,0.75
2024-02-22T16:37:37.911Z,0.60
2024-02-22T16:42:39.919Z,0.17
2024-02-22T16:47:43.541Z,0.30
2024-02-22T16:52:45.503Z,0.30
2024-02-22T16:57:47.487Z,0.35
2024-02-22T17:02:49.556Z,0.20
2024-02-22T17:07:51.905Z,0.30
2024-02-22T17:12:53.841Z,0.35
2024-02-22T17:17:55.789Z,0.80
2024-02-22T17:22:58.229Z,0.70
2024-02-22T17:28:00.158Z,0.55
2024-02-22T17:33:02.201Z,1.00
2024-02-22T17:38:04.256Z,0.85
2024-02-22T17:43:06.653Z,0.68
2024-02-22T17:48:09.271Z,0.75
2024-02-22T17:53:11.332Z,1.13
2024-02-22T17:58:15.004Z,0.70
2024-02-22T18:03:17.094Z,1.52
2024-02-22T18:08:19.301Z,1.35
2024-02-22T18:13:21.459Z,1.10
2024-02-22T18:18:23.811Z,1.17
2024-02-22T18:23:26.039Z,0.95
2024-02-22T18:28:27.996Z,0.80
2024-02-22T18:33:30.183Z,0.70
2024-02-22T18:38:33.917Z,0.70
2024-02-22T18:43:35.895Z,0.55
2024-02-22T18:48:41.026Z,1.00
2024-02-22T18:53:43.271Z,0.65
2024-02-22T18:58:45.192Z,0.60
2024-02-22T19:03:47.153Z,0.45
2024-02-22T19:08:49.317Z,0.50
2024-02-22T19:13:51.763Z,0.45
2024-02-22T19:18:54.047Z,0.25
2024-02-22T19:23:55.932Z,0.30
2024-02-22T19:28:58.968Z,0.30
2024-02-22T19:34:02.364Z,0.50
2024-02-22T19:39:04.881Z,0.20
2024-02-22T19:44:07.615Z,0.60
2024-02-22T19:49:09.735Z,0.28
2024-02-22T19:54:11.886Z,0.40
2024-02-22T19:59:14.977Z,0.68
2024-02-22T20:04:17.076Z,0.65
2024-02-22T20:09:18.982Z,0.20
2024-02-22T20:14:21.043Z,0.40
2024-02-22T20:19:23.256Z,0.55
2024-02-22T20:24:25.223Z,0.43
2024-02-22T20:29:27.241Z,0.40
2024-02-22T20:34:29.290Z,0.40
2024-02-22T20:39:31.383Z,0.20
2024-02-22T20:44:33.706Z,0.30
2024-02-22T20:49:35.872Z,0.30
2024-02-22T20:54:37.815Z,0.43
2024-02-22T20:59:42.665Z,0.40
2024-02-22T21:04:44.882Z,0.35
2024-02-22T21:09:47.416Z,0.60
2024-02-22T21:14:49.389Z,0.20
2024-02-22T21:19:51.412Z,0.30
2024-02-22T21:24:53.568Z,0.45
2024-02-22T21:29:55.535Z,0.40
2024-02-22T21:34:58.506Z,0.52
2024-02-22T21:40:02.635Z,0.22
2024-02-22T21:45:05.644Z,0.30
2024-02-22T21:50:10.052Z,0.57
2024-02-22T21:55:12.266Z,0.20
2024-02-22T22:00:14.637Z,0.40
2024-02-22T22:05:17.218Z,0.30
2024-02-22T22:10:19.181Z,0.20
2024-02-22T22:15:21.406Z,0.15
2024-02-22T22:20:23.729Z,0.10
2024-02-22T22:25:25.972Z,0.30
2024-02-22T22:30:28.001Z,0.20
2024-02-22T22:35:29.943Z,0.40
2024-02-22T22:40:31.884Z,0.30
2024-02-22T22:45:33.770Z,0.20
2024-02-22T22:50:35.871Z,0.00
2024-02-22T22:55:37.920Z,0.17
2024-02-22T23:00:39.985Z,0.40
2024-02-22T23:05:42.053Z,0.40
2024-02-22T23:10:44.157Z,0.10
2024-02-22T23:15:48.819Z,0.20
2024-02-22T23:20:50.810Z,0.22
2024-02-22T23:25:52.776Z,0.30
2024-02-22T23:30:54.790Z,0.20
2024-02-22T23:35:56.938Z,0.20
2024-02-22T23:41:10.611Z,0.20
2024-02-22T23:46:20.816Z,0.40
2024-02-22T23:51:22.859Z,0.03
2024-02-22T23:56:25.824Z,0.10
